Time;durP1;ratioP1;P1;durP2;ratioP2;P2;SDS_P1;SDS_P2;PMS_P1;PMS_P2;Temp;Humidity;BMP_temperature;BMP_pressure;BME280_temperature;BME280_humidity;BME280_pressure;Samples;Min_cycle;Max_cycle;Signal;HPM_P1;HPM_P2
2023/07/21 00:01:18;;;;;;;14.20;9.70;;;;;;;17.60;100.00;99975.82;105639;1257;72681;-45
2023/07/21 00:03:46;;;;;;;11.90;10.10;;;;;;;17.60;100.00;99976.88;105615;1260;60420;-46
2023/07/21 00:06:17;;;;;;;11.20;9.00;;;;;;;17.57;100.00;99976.69;105720;1259;59569;-47
2023/07/21 00:08:45;;;;;;;8.70;7.80;;;;;;;17.54;100.00;99977.71;105709;1256;71494;-49
2023/07/21 00:11:13;;;;;;;11.60;9.10;;;;;;;17.52;100.00;99975.54;105608;1253;65306;-46
2023/07/21 00:13:40;;;;;;;8.00;6.90;;;;;;;17.51;100.00;99971.94;105654;1259;72641;-46
2023/07/21 00:16:08;;;;;;;9.60;6.10;;;;;;;17.49;100.00;99969.99;105669;1254;61658;-46
2023/07/21 00:18:36;;;;;;;6.40;5.70;;;;;;;17.44;100.00;99978.77;105646;1259;60010;-46
2023/07/21 00:21:05;;;;;;;5.90;5.00;;;;;;;17.38;100.00;99978.77;105640;1259;71019;-46
2023/07/21 00:23:33;;;;;;;5.50;5.00;;;;;;;17.31;100.00;99983.35;105517;1257;64229;-47
2023/07/21 00:26:01;;;;;;;5.80;4.90;;;;;;;17.24;100.00;99987.35;105634;1253;71433;-47
2023/07/21 00:28:29;;;;;;;6.20;4.70;;;;;;;17.18;100.00;99991.32;105642;1260;61622;-47
2023/07/21 00:30:57;;;;;;;6.70;4.30;;;;;;;17.10;100.00;99988.61;105643;1259;59645;-47
2023/07/21 00:33:25;;;;;;;6.10;4.90;;;;;;;17.05;100.00;99985.59;105658;1258;73011;-46
2023/07/21 00:35:55;;;;;;;10.10;4.20;;;;;;;16.99;100.00;99983.60;105585;1262;64384;-46
2023/07/21 00:38:23;;;;;;;7.80;4.80;;;;;;;16.93;100.00;99984.58;105637;1260;71759;-46
2023/07/21 00:40:50;;;;;;;5.80;4.60;;;;;;;16.90;100.00;99984.55;106410;1254;59895;-46
2023/07/21 00:43:18;;;;;;;6.90;5.00;;;;;;;16.86;100.00;99991.55;106060;1255;60035;-47
2023/07/21 00:45:49;;;;;;;4.60;4.20;;;;;;;16.83;100.00;99998.36;105773;1258;73005;-45
2023/07/21 00:48:17;;;;;;;4.20;3.80;;;;;;;16.77;100.00;100004.38;105635;1268;64032;-47
2023/07/21 00:50:46;;;;;;;6.00;3.50;;;;;;;16.72;100.00;100007.10;105633;1257;71465;-46
2023/07/21 00:53:14;;;;;;;3.20;2.80;;;;;;;16.67;100.00;100009.63;105663;1258;61652;-47
2023/07/21 00:55:42;;;;;;;3.20;3.00;;;;;;;16.60;100.00;100010.46;105554;1254;59670;-47
2023/07/21 00:58:10;;;;;;;10.70;3.00;;;;;;;16.55;100.00;100014.57;105555;1255;72056;-47
2023/07/21 01:00:39;;;;;;;4.50;2.60;;;;;;;16.51;100.00;100016.35;105604;1259;65146;-47
2023/07/21 01:03:11;;;;;;;3.00;2.70;;;;;;;16.48;100.00;100017.54;105732;1267;72699;-45
2023/07/21 01:05:42;;;;;;;5.30;2.60;;;;;;;16.46;100.00;100019.05;105674;1259;60386;-47
2023/07/21 01:08:11;;;;;;;2.90;2.60;;;;;;;16.42;100.00;100018.52;105661;1255;60066;-47
2023/07/21 01:10:39;;;;;;;6.10;2.40;;;;;;;16.40;100.00;100015.31;105811;1254;71779;-46
2023/07/21 01:13:09;;;;;;;2.80;2.30;;;;;;;16.39;100.00;100021.97;105607;1259;65298;-46
2023/07/21 01:15:43;;;;;;;3.30;2.20;;;;;;;16.40;100.00;100023.16;105620;1257;71399;-46
2023/07/21 01:18:12;;;;;;;9.10;2.50;;;;;;;16.38;100.00;100025.14;105795;1259;60395;-46
2023/07/21 01:20:40;;;;;;;3.20;2.00;;;;;;;16.37;100.00;100030.74;105695;1259;59578;-46
2023/07/21 01:23:24;;;;;;;4.50;2.10;;;;;;;16.36;100.00;100025.58;105671;1259;73115;-47
2023/07/21 01:25:54;;;;;;;3.10;2.10;;;;;;;16.36;100.00;100022.45;105792;1263;64326;-46
2023/07/21 01:28:21;;;;;;;2.90;1.80;;;;;;;16.38;100.00;100024.27;105586;1260;71909;-46
2023/07/21 01:30:49;;;;;;;2.40;1.90;;;;;;;16.38;100.00;100022.52;105633;1259;60377;-46
2023/07/21 01:33:20;;;;;;;2.20;2.00;;;;;;;16.41;100.00;100024.16;105638;1261;59549;-45
2023/07/21 01:35:49;;;;;;;3.60;2.00;;;;;;;16.41;100.00;100027.79;105692;1254;71794;-47
2023/07/21 01:38:18;;;;;;;2.60;1.90;;;;;;;16.40;100.00;100028.00;105607;1263;64071;-46
2023/07/21 01:40:46;;;;;;;5.80;2.00;;;;;;;16.40;100.00;100026.79;105694;1259;71457;-46
2023/07/21 01:43:14;;;;;;;3.30;1.90;;;;;;;16.45;100.00;100027.46;105606;1261;60546;-46
2023/07/21 01:45:43;;;;;;;1.80;1.70;;;;;;;16.49;100.00;100027.74;105632;1260;60032;-45
2023/07/21 01:48:11;;;;;;;2.00;1.80;;;;;;;16.54;100.00;100024.02;105637;1254;71839;-46
2023/07/21 01:50:41;;;;;;;3.00;2.00;;;;;;;16.58;100.00;100026.63;105644;1259;64365;-46
2023/07/21 01:53:17;;;;;;;6.40;2.10;;;;;;;16.60;100.00;100027.39;105665;1259;72793;-47
2023/07/21 01:55:50;;;;;;;4.00;2.10;;;;;;;16.64;100.00;100037.11;105644;1254;61841;-46
2023/07/21 01:58:18;;;;;;;8.00;3.00;;;;;;;16.69;100.00;100034.95;105742;1254;60037;-47
2023/07/21 02:00:46;;;;;;;4.90;2.40;;;;;;;16.75;100.00;100039.01;105608;1254;71816;-47
2023/07/21 02:03:18;;;;;;;4.60;3.10;;;;;;;16.83;100.00;100043.30;105846;1260;64528;-46
2023/07/21 02:05:48;;;;;;;3.90;3.20;;;;;;;16.91;100.00;100044.28;105611;1261;72677;-48
2023/07/21 02:08:17;;;;;;;4.30;3.50;;;;;;;17.00;100.00;100042.13;105656;1255;61644;-46
2023/07/21 02:10:47;;;;;;;4.80;3.60;;;;;;;17.07;100.00;100039.70;105693;1255;60019;-45
2023/07/21 02:13:23;;;;;;;4.10;3.90;;;;;;;17.13;100.00;100048.24;105672;1260;70743;-45
2023/07/21 02:15:51;;;;;;;4.60;4.10;;;;;;;17.17;100.00;100052.77;105601;1260;63266;-46
2023/07/21 02:18:20;;;;;;;5.30;4.50;;;;;;;17.18;100.00;100058.45;105545;1260;72402;-45
2023/07/21 02:20:47;;;;;;;5.00;4.50;;;;;;;17.21;100.00;100060.05;105592;1257;61670;-45
2023/07/21 02:23:16;;;;;;;4.90;4.40;;;;;;;17.21;100.00;100064.88;105705;1260;60356;-46
2023/07/21 02:25:45;;;;;;;6.60;4.80;;;;;;;17.22;100.00;100063.48;105664;1258;71968;-45
2023/07/21 02:28:12;;;;;;;5.10;4.40;;;;;;;17.20;100.00;100068.25;105606;1261;64038;-45
2023/07/21 02:30:40;;;;;;;9.90;4.80;;;;;;;17.20;100.00;100066.20;105617;1260;70801;-45
2023/07/21 02:33:09;;;;;;;9.50;6.30;;;;;;;17.17;100.00;100068.77;105641;1261;60555;-46
2023/07/21 02:35:37;;;;;;;7.70;6.50;;;;;;;17.17;100.00;100070.34;105782;1254;60840;-45
2023/07/21 02:38:05;;;;;;;11.50;8.40;;;;;;;17.20;100.00;100081.19;105676;1260;73817;-45
2023/07/21 02:40:33;;;;;;;10.00;9.00;;;;;;;17.23;100.00;100088.54;105673;1258;64042;-45
2023/07/21 02:43:01;;;;;;;13.40;9.50;;;;;;;17.27;100.00;100094.64;105702;1259;71369;-46
2023/07/21 02:45:29;;;;;;;12.30;9.90;;;;;;;17.30;100.00;100100.38;105611;1259;60418;-46
2023/07/21 02:47:57;;;;;;;13.70;10.30;;;;;;;17.34;100.00;100104.38;105616;1254;60359;-45
2023/07/21 02:50:26;;;;;;;13.00;11.70;;;;;;;17.36;100.00;100103.55;105585;1254;72553;-45
2023/07/21 02:52:54;;;;;;;15.90;11.50;;;;;;;17.39;100.00;100114.19;105479;1261;63947;-46
2023/07/21 02:55:22;;;;;;;10.80;9.70;;;;;;;17.42;100.00;100117.88;105747;1254;70731;-46
2023/07/21 02:57:52;;;;;;;11.50;9.90;;;;;;;17.44;100.00;100123.38;105625;1260;61677;-45
2023/07/21 03:00:20;;;;;;;11.70;9.90;;;;;;;17.46;100.00;100129.88;105649;1258;60381;-45
2023/07/21 03:02:56;;;;;;;10.80;8.00;;;;;;;17.47;100.00;100138.22;105699;1254;72677;-44
2023/07/21 03:05:24;;;;;;;9.10;6.80;;;;;;;17.49;100.00;100146.48;105690;1262;65253;-45
2023/07/21 03:07:52;;;;;;;8.50;5.80;;;;;;;17.51;100.00;100155.60;105829;1254;71460;-44
2023/07/21 03:10:21;;;;;;;8.70;5.90;;;;;;;17.51;100.00;100163.45;105639;1259;60552;-47
2023/07/21 03:12:49;;;;;;;8.90;5.10;;;;;;;17.50;100.00;100172.59;105633;1258;60367;-47
2023/07/21 03:15:22;;;;;;;6.20;5.50;;;;;;;17.49;100.00;100185.73;105658;1261;73851;-45
2023/07/21 03:17:59;;;;;;;7.90;6.10;;;;;;;17.47;100.00;100194.73;105638;1260;64067;-46
2023/07/21 03:20:29;;;;;;;7.00;6.20;;;;;;;17.44;100.00;100207.25;105633;1261;71211;-45
2023/07/21 03:22:57;;;;;;;8.20;6.80;;;;;;;17.39;100.00;100219.89;105645;1254;60447;-47
2023/07/21 03:25:26;;;;;;;7.10;6.40;;;;;;;17.36;100.00;100230.88;105685;1255;60389;-47
2023/07/21 03:27:55;;;;;;;7.00;6.40;;;;;;;17.34;100.00;100248.92;105674;1260;72602;-47
2023/07/21 03:30:22;;;;;;;10.00;6.70;;;;;;;17.33;100.00;100266.42;105594;1259;64215;-48
2023/07/21 03:32:59;;;;;;;8.00;7.20;;;;;;;17.31;100.00;100283.94;105485;1256;71502;-47
2023/07/21 03:35:28;;;;;;;10.20;7.40;;;;;;;17.31;100.00;100295.31;105667;1254;60447;-47
2023/07/21 03:37:57;;;;;;;11.20;7.90;;;;;;;17.30;100.00;100313.82;105556;1254;60379;-49
2023/07/21 03:40:26;;;;;;;9.40;8.40;;;;;;;17.31;100.00;100327.73;107583;1254;73821;-49
2023/07/21 03:42:53;;;;;;;8.90;7.90;;;;;;;17.33;100.00;100337.05;105934;1254;64005;-46
2023/07/21 03:45:23;;;;;;;9.80;8.00;;;;;;;17.34;100.00;100346.07;105621;1261;73098;-48
2023/07/21 03:47:51;;;;;;;11.30;8.60;;;;;;;17.34;100.00;100353.73;105618;1260;60579;-46
2023/07/21 03:50:18;;;;;;;10.60;8.70;;;;;;;17.33;100.00;100362.46;105756;1257;60345;-44
2023/07/21 03:52:47;;;;;;;9.70;8.50;;;;;;;17.32;100.00;100378.59;105759;1255;73089;-46
2023/07/21 03:55:17;;;;;;;11.40;8.30;;;;;;;17.32;100.00;100385.61;105680;1258;64039;-44
2023/07/21 03:57:45;;;;;;;9.40;8.10;;;;;;;17.32;100.00;100390.64;105647;1255;72660;-47
2023/07/21 04:00:13;;;;;;;10.60;7.80;;;;;;;17.32;100.00;100399.16;105678;1258;61628;-45
2023/07/21 04:02:42;;;;;;;10.30;8.20;;;;;;;17.32;100.00;100403.19;105646;1257;60436;-46
2023/07/21 04:05:09;;;;;;;9.70;8.00;;;;;;;17.33;100.00;100406.77;105821;1254;73856;-47
2023/07/21 04:07:37;;;;;;;9.10;8.20;;;;;;;17.36;100.00;100410.16;105666;1255;62950;-45
2023/07/21 04:10:06;;;;;;;12.20;8.70;;;;;;;17.39;100.00;100411.73;105629;1260;71480;-46
2023/07/21 04:12:33;;;;;;;10.00;8.70;;;;;;;17.43;100.00;100419.08;105704;1254;60560;-45
2023/07/21 04:15:01;;;;;;;11.20;9.00;;;;;;;17.44;100.00;100428.23;105656;1259;60433;-45
2023/07/21 04:17:29;;;;;;;12.90;9.30;;;;;;;17.46;100.00;100434.45;105577;1254;72677;-45
2023/07/21 04:19:57;;;;;;;11.20;10.10;;;;;;;17.48;100.00;100447.20;105584;1254;64297;-47
2023/07/21 04:22:26;;;;;;;13.20;9.70;;;;;;;17.49;100.00;100463.93;105690;1257;72714;-46
2023/07/21 04:24:54;;;;;;;11.30;10.20;;;;;;;17.53;100.00;100482.08;105673;1254;60745;-45
2023/07/21 04:27:24;;;;;;;14.20;9.80;;;;;;;17.61;100.00;100499.64;105662;1254;60446;-45
2023/07/21 04:29:51;;;;;;;10.00;9.00;;;;;;;17.70;100.00;100519.83;105585;1254;72667;-47
2023/07/21 04:32:20;;;;;;;10.20;9.10;;;;;;;17.71;100.00;100540.77;105620;1261;64152;-46
2023/07/21 04:34:50;;;;;;;14.10;10.40;;;;;;;17.70;100.00;100570.80;105591;1257;71419;-46
2023/07/21 04:37:17;;;;;;;15.70;11.20;;;;;;;17.66;100.00;100600.80;105590;1258;60462;-46
2023/07/21 04:39:51;;;;;;;12.40;11.20;;;;;;;17.62;100.00;100626.81;105687;1254;60358;-48
2023/07/21 04:42:19;;;;;;;19.30;10.60;;;;;;;17.60;100.00;100643.67;105666;1254;72920;-46
2023/07/21 04:44:49;;;;;;;13.10;11.30;;;;;;;17.61;100.00;100647.80;105672;1254;63241;-45
2023/07/21 04:47:17;;;;;;;11.30;10.20;;;;;;;17.66;100.00;100650.20;105717;1259;71553;-48
2023/07/21 04:49:58;;;;;;;12.60;11.40;;;;;;;17.70;100.00;100654.92;105667;1257;60452;-46
2023/07/21 04:52:26;;;;;;;12.80;11.30;;;;;;;17.71;100.00;100654.52;105690;1254;60433;-47
2023/07/21 04:54:54;;;;;;;12.20;11.10;;;;;;;17.74;100.00;100661.35;105594;1255;73898;-48
2023/07/21 04:57:22;;;;;;;13.10;11.90;;;;;;;17.77;100.00;100661.04;105595;1255;64316;-47
2023/07/21 04:59:50;;;;;;;13.10;11.80;;;;;;;17.76;100.00;100664.40;105598;1257;71421;-47
2023/07/21 05:02:18;;;;;;;17.90;12.60;;;;;;;17.73;100.00;100674.85;105649;1260;61609;-47
2023/07/21 05:04:45;;;;;;;12.50;11.30;;;;;;;17.67;100.00;100685.93;105644;1261;60377;-46
2023/07/21 05:07:13;;;;;;;13.90;12.50;;;;;;;17.63;100.00;100691.70;105808;1254;72912;-46
2023/07/21 05:09:42;;;;;;;15.20;13.80;;;;;;;17.58;100.00;100692.77;105699;1258;65237;-44
2023/07/21 05:12:13;;;;;;;16.00;14.40;;;;;;;17.54;100.00;100697.48;105657;1257;70641;-45
2023/07/21 05:14:54;;;;;;;15.30;13.90;;;;;;;17.52;100.00;100690.42;105628;1257;62063;-45
2023/07/21 05:17:40;;;;;;;;;;;;;;;17.51;100.00;100684.52;105603;1259;60377;-44
2023/07/21 05:20:33;;;;;;;14.50;13.20;;;;;;;17.48;100.00;100683.07;105734;1254;73146;-47
2023/07/21 05:23:13;;;;;;;15.00;13.60;;;;;;;17.50;100.00;100681.43;105526;1254;63516;-47
2023/07/21 05:26:00;;;;;;;17.70;12.50;;;;;;;17.56;100.00;100682.09;105561;1260;71660;-49
2023/07/21 05:28:34;;;;;;;14.80;12.40;;;;;;;17.61;100.00;100692.83;105620;1257;61099;-46
2023/07/21 05:31:03;;;;;;;13.70;11.90;;;;;;;17.65;100.00;100699.26;105793;1256;60443;-46
2023/07/21 05:33:41;;;;;;;23.90;14.90;;;;;;;17.76;100.00;100704.73;105632;1254;73805;-49
2023/07/21 05:36:10;;;;;;;25.00;15.00;;;;;;;17.88;100.00;100708.90;105901;1254;64026;-46
2023/07/21 05:38:39;;;;;;;18.20;16.30;;;;;;;18.08;100.00;100713.83;105520;1256;71648;-45
2023/07/21 05:41:06;;;;;;;20.40;15.60;;;;;;;18.32;100.00;100722.13;105595;1258;60414;-47
2023/07/21 05:43:36;;;;;;;22.00;15.30;;;;;;;18.50;100.00;100730.55;105801;1258;60483;-45
2023/07/21 05:46:06;;;;;;;23.50;15.90;;;;;;;18.61;100.00;100736.52;105595;1254;73832;-45
2023/07/21 05:48:37;;;;;;;21.70;15.80;;;;;;;18.62;100.00;100729.83;105693;1254;64103;-46
2023/07/21 05:51:11;;;;;;;16.60;14.70;;;;;;;18.65;100.00;100728.25;105588;1259;72729;-46
2023/07/21 05:53:40;;;;;;;14.80;12.50;;;;;;;18.70;100.00;100721.93;105675;1257;60506;-45
2023/07/21 05:56:11;;;;;;;15.40;13.20;;;;;;;18.70;100.00;100713.38;105675;1253;60370;-46
2023/07/21 05:58:50;;;;;;;14.30;12.90;;;;;;;18.66;100.00;100693.61;105663;1254;73910;-46
2023/07/21 06:01:18;;;;;;;15.10;13.50;;;;;;;18.67;100.00;100685.16;105718;1258;63996;-44
2023/07/21 06:03:46;;;;;;;16.40;13.60;;;;;;;18.73;100.00;100694.55;105695;1259;73171;-45
2023/07/21 06:06:14;;;;;;;16.10;12.10;;;;;;;18.71;100.00;100683.80;105572;1256;61606;-44
2023/07/21 06:09:00;;;;;;;11.50;8.80;;;;;;;18.65;100.00;100665.55;105655;1254;60441;-48
2023/07/21 06:11:45;;;;;;;10.90;8.70;;;;;;;18.56;100.00;100640.99;105657;1258;73924;-45
2023/07/21 06:14:24;;;;;;;10.30;8.20;;;;;;;18.53;100.00;100637.47;105664;1260;65168;-44
2023/07/21 06:17:14;;;;;;;10.20;8.40;;;;;;;18.49;100.00;100631.35;105711;1254;71724;-48
2023/07/21 06:19:42;;;;;;;9.70;8.50;;;;;;;18.44;100.00;100600.34;105656;1255;61647;-47
2023/07/21 06:22:10;;;;;;;8.50;7.80;;;;;;;18.51;100.00;100585.64;105653;1253;60440;-46
2023/07/21 06:24:37;;;;;;;13.30;7.90;;;;;;;18.72;100.00;100571.33;105523;1255;73221;-46
2023/07/21 06:27:06;;;;;;;10.00;7.70;;;;;;;18.99;100.00;100539.75;105508;1253;63708;-46
2023/07/21 06:29:33;;;;;;;11.40;7.10;;;;;;;19.24;100.00;100437.14;105650;1259;70510;-46
2023/07/21 06:32:01;;;;;;;7.80;7.20;;;;;;;19.45;100.00;100331.02;105668;1255;60701;-45
2023/07/21 06:34:55;;;;;;;6.30;5.90;;;;;;;19.53;100.00;100218.41;105602;1259;60430;-48
2023/07/21 06:37:37;;;;;;;7.40;6.70;;;;;;;19.54;100.00;100162.52;105676;1253;73865;-46
2023/07/21 06:40:35;;;;;;;8.20;5.70;;;;;;;19.54;100.00;100106.16;105521;1258;64045;-46
2023/07/21 06:43:35;;;;;;;6.90;6.20;;;;;;;19.63;100.00;100079.02;105510;1254;72634;-47
2023/07/21 06:48:49;;;;;;;6.30;5.10;;;;;;;19.85;100.00;99988.58;102782;1295;600942;-46
2023/07/21 06:51:26;;;;;;;6.70;5.30;;;;;;;19.81;100.00;99966.89;105044;1270;60434;-46
2023/07/21 06:53:55;;;;;;;5.70;5.20;;;;;;;19.76;100.00;99942.92;104839;1266;59940;-46
2023/07/21 06:56:23;;;;;;;6.10;5.50;;;;;;;19.73;100.00;99951.73;105446;1259;70942;-46
2023/07/21 06:58:51;;;;;;;5.40;4.90;;;;;;;19.72;100.00;99955.82;105572;1254;63307;-46
2023/07/21 07:01:20;;;;;;;4.30;4.10;;;;;;;19.63;100.00;99932.41;105554;1257;227986;-49
2023/07/21 07:03:49;;;;;;;8.00;5.00;;;;;;;19.58;100.00;99936.02;105846;1254;61638;-46
2023/07/21 07:06:17;;;;;;;5.40;4.90;;;;;;;19.61;100.00;99951.74;105852;1253;59921;-46
2023/07/21 07:08:44;;;;;;;6.30;5.40;;;;;;;19.70;100.00;99965.92;105774;1257;72263;-45
2023/07/21 07:11:14;;;;;;;7.30;5.50;;;;;;;19.81;100.00;99964.80;105925;1251;64542;-45
2023/07/21 07:13:42;;;;;;;6.80;5.80;;;;;;;19.92;100.00;99960.67;105884;1254;74096;-44
2023/07/21 07:16:10;;;;;;;5.80;5.40;;;;;;;19.99;100.00;99965.10;105794;1254;60638;-46
2023/07/21 07:18:38;;;;;;;11.30;4.90;;;;;;;20.14;100.00;99979.88;105890;1257;59995;-46
2023/07/21 07:21:06;;;;;;;6.10;4.60;;;;;;;20.30;100.00;99966.06;105646;1252;72510;-45
2023/07/21 07:23:34;;;;;;;5.20;4.80;;;;;;;20.42;100.00;99949.10;105759;1254;65413;-45
2023/07/21 07:26:01;;;;;;;5.80;5.30;;;;;;;20.57;100.00;99957.39;105788;1254;71983;-45
2023/07/21 07:28:29;;;;;;;5.40;4.60;;;;;;;20.56;100.00;99963.45;105703;1257;60005;-45
2023/07/21 07:31:05;;;;;;;4.80;4.50;;;;;;;20.49;100.00;99977.77;105926;1257;61002;-46
2023/07/21 07:33:33;;;;;;;12.60;5.30;;;;;;;20.39;100.00;99987.71;105698;1254;71991;-46
2023/07/21 07:36:01;;;;;;;6.00;5.40;;;;;;;20.29;100.00;99991.66;106024;1254;65382;-47
2023/07/21 07:38:30;;;;;;;5.60;5.00;;;;;;;20.16;100.00;99993.26;105706;1257;71221;-48
2023/07/21 07:41:05;;;;;;;6.90;5.70;;;;;;;20.05;100.00;100004.85;105909;1257;60472;-46
2023/07/21 07:43:33;;;;;;;10.00;5.40;;;;;;;20.00;100.00;100033.66;105799;1254;59910;-45
2023/07/21 07:46:01;;;;;;;7.80;5.30;;;;;;;19.92;100.00;100043.63;105978;1254;71799;-45
2023/07/21 07:48:29;;;;;;;5.50;5.00;;;;;;;19.91;100.00;100068.73;105739;1257;65181;-46
2023/07/21 07:51:01;;;;;;;8.20;4.90;;;;;;;20.02;100.00;100099.92;105856;1254;72281;-45
2023/07/21 07:53:29;;;;;;;5.50;5.00;;;;;;;20.19;100.00;100083.42;105716;1254;59794;-46
2023/07/21 07:55:57;;;;;;;5.60;5.10;;;;;;;20.35;100.00;100063.83;105856;1257;59682;-46
2023/07/21 07:58:25;;;;;;;5.40;5.00;;;;;;;20.60;100.00;100057.26;105735;1253;72241;-45
2023/07/21 08:00:57;;;;;;;5.00;4.50;;;;;;;20.77;100.00;100011.84;105860;1254;65268;-44
2023/07/21 08:03:25;;;;;;;6.90;5.60;;;;;;;20.80;100.00;99994.98;105840;1254;72674;-44
2023/07/21 08:05:54;;;;;;;4.80;4.40;;;;;;;20.81;100.00;100000.15;105671;1257;60494;-45
2023/07/21 08:08:22;;;;;;;9.40;4.80;;;;;;;20.81;100.00;100007.70;105708;1258;59631;-47
2023/07/21 08:10:50;;;;;;;7.50;4.70;;;;;;;20.75;100.00;100009.11;105637;1257;73149;-47
2023/07/21 08:13:18;;;;;;;7.00;5.30;;;;;;;20.75;100.00;100010.69;105683;1252;63326;-44
2023/07/21 08:15:46;;;;;;;5.60;5.10;;;;;;;20.83;100.00;100013.39;105750;1257;71896;-46
2023/07/21 08:18:14;;;;;;;5.10;4.60;;;;;;;20.88;100.00;100014.61;105684;1257;61598;-46
2023/07/21 08:20:43;;;;;;;6.30;5.70;;;;;;;20.91;100.00;100014.71;105629;1254;59995;-46
2023/07/21 08:23:11;;;;;;;7.90;5.20;;;;;;;20.93;100.00;100017.23;105847;1254;71831;-46
2023/07/21 08:25:57;;;;;;;6.20;5.70;;;;;;;21.01;100.00;100023.34;105689;1254;63948;-45
2023/07/21 08:28:25;;;;;;;5.60;5.20;;;;;;;21.15;100.00;100031.32;105646;1254;72671;-46
2023/07/21 08:30:53;;;;;;;6.50;5.80;;;;;;;21.19;100.00;100048.97;105793;1258;60379;-43
2023/07/21 08:33:24;;;;;;;5.40;5.00;;;;;;;21.17;100.00;100057.17;105690;1254;59618;-47
2023/07/21 08:35:52;;;;;;;6.80;5.30;;;;;;;21.27;100.00;100051.40;106004;1254;72044;-47
2023/07/21 08:38:19;;;;;;;6.40;5.10;;;;;;;21.50;100.00;100055.95;106098;1254;63959;-45
2023/07/21 08:40:49;;;;;;;6.00;5.50;;;;;;;21.76;100.00;100063.08;105634;1254;71609;-43
2023/07/21 08:43:17;;;;;;;9.70;5.80;;;;;;;21.92;100.00;100098.84;105724;1257;59664;-45
2023/07/21 08:45:45;;;;;;;6.10;5.50;;;;;;;21.99;100.00;100123.23;105606;1257;59666;-44
2023/07/21 08:48:17;;;;;;;6.10;5.60;;;;;;;22.19;100.00;100131.91;105667;1253;74693;-45
2023/07/21 08:50:47;;;;;;;6.20;5.00;;;;;;;22.53;100.00;100129.59;105643;1258;65633;-47
2023/07/21 08:53:15;;;;;;;6.70;4.90;;;;;;;22.80;100.00;100159.60;105669;1258;73645;-46
2023/07/21 08:55:43;;;;;;;6.70;5.20;;;;;;;22.91;100.00;100185.54;105614;1259;60020;-47
2023/07/21 08:58:11;;;;;;;5.90;5.30;;;;;;;22.78;100.00;100214.84;105699;1252;59973;-45
2023/07/21 09:00:39;;;;;;;7.20;5.50;;;;;;;22.53;100.00;100219.09;105711;1254;71815;-44
2023/07/21 09:03:07;;;;;;;8.40;5.40;;;;;;;22.32;100.00;100209.98;105531;1256;65210;-50
2023/07/21 09:05:38;;;;;;;6.50;5.90;;;;;;;22.13;100.00;100218.89;105780;1258;71386;-47
2023/07/21 09:08:18;;;;;;;6.50;5.60;;;;;;;21.92;100.00;100235.98;105639;1254;59675;-46
2023/07/21 09:10:47;;;;;;;8.60;5.60;;;;;;;21.89;100.00;100240.79;105947;1254;60080;-48
2023/07/21 09:13:18;;;;;;;6.20;5.30;;;;;;;22.08;100.00;100223.45;105672;1253;71006;-47
2023/07/21 09:15:57;;;;;;;5.40;5.00;;;;;;;22.14;100.00;100245.04;105686;1254;64111;-45
2023/07/21 09:18:35;;;;;;;7.60;5.20;;;;;;;22.18;100.00;100248.92;105917;1254;71411;-45
2023/07/21 09:21:03;;;;;;;6.20;5.70;;;;;;;22.32;100.00;100241.80;105856;1257;60248;-45
2023/07/21 09:23:31;;;;;;;5.80;5.10;;;;;;;22.29;100.00;100262.08;105919;1253;60171;-45
2023/07/21 09:26:00;;;;;;;8.90;6.10;;;;;;;22.19;100.00;100267.54;105606;1257;71025;-45
2023/07/21 09:28:57;;;;;;;6.30;5.90;;;;;;;22.09;100.00;100270.84;105681;1258;65199;-46
2023/07/21 09:31:29;;;;;;;6.40;5.90;;;;;;;22.11;100.00;100259.84;105509;1254;71496;-45
2023/07/21 09:34:08;;;;;;;7.70;6.00;;;;;;;22.29;100.00;100232.02;105776;1254;60381;-48
2023/07/21 09:36:35;;;;;;;6.10;5.60;;;;;;;22.36;100.00;100226.93;105635;1259;59538;-47
2023/07/21 09:39:04;;;;;;;7.30;6.70;;;;;;;22.32;100.00;100238.63;105704;1254;71809;-46
2023/07/21 09:41:33;;;;;;;7.60;6.80;;;;;;;22.17;100.00;100242.73;105826;1257;63956;-46
2023/07/21 09:44:00;;;;;;;7.60;6.90;;;;;;;22.15;100.00;100224.07;105729;1254;72622;-47
2023/07/21 09:46:28;;;;;;;9.20;6.20;;;;;;;22.27;100.00;100207.02;105597;1260;61238;-46
2023/07/21 09:48:56;;;;;;;8.00;7.20;;;;;;;22.32;100.00;100200.86;105612;1259;59586;-47
2023/07/21 09:51:28;;;;;;;8.20;6.20;;;;;;;22.33;100.00;100195.33;105605;1258;71294;-47
2023/07/21 09:53:58;;;;;;;6.40;5.80;;;;;;;22.37;100.00;100191.71;105766;1255;65249;-44
2023/07/21 09:56:26;;;;;;;7.70;7.00;;;;;;;22.39;100.00;100193.36;105682;1254;71358;-45
2023/07/21 09:59:00;;;;;;;7.30;6.60;;;;;;;22.44;100.00;100186.29;106055;1254;60450;-49
2023/07/21 10:01:29;;;;;;;7.80;6.60;;;;;;;22.47;100.00;100202.67;105824;1253;59739;-46
2023/07/21 10:03:58;;;;;;;7.20;6.00;;;;;;;22.37;100.00;100221.26;105598;1255;71881;-46
2023/07/21 10:06:26;;;;;;;6.80;6.20;;;;;;;22.35;100.00;100229.31;105645;1254;64393;-48
2023/07/21 10:08:53;;;;;;;6.90;6.30;;;;;;;22.49;100.00;100213.88;105664;1254;71424;-46
2023/07/21 10:11:21;;;;;;;7.80;6.90;;;;;;;22.75;100.00;100206.63;105585;1257;59804;-46
2023/07/21 10:13:49;;;;;;;7.10;6.60;;;;;;;22.99;100.00;100217.81;105588;1254;59554;-47
2023/07/21 10:16:19;;;;;;;6.90;6.50;;;;;;;23.16;100.00;100242.82;105629;1254;71786;-45
2023/07/21 10:19:07;;;;;;;6.90;6.40;;;;;;;23.17;100.00;100274.25;105634;1254;65149;-45
2023/07/21 10:21:50;;;;;;;9.30;6.40;;;;;;;23.01;100.00;100296.17;105628;1254;71373;-47
2023/07/21 10:42:05;;;;;;;7.10;6.10;;;;;;;23.44;100.00;100331.43;102474;1294;615578;-41
2023/07/21 10:44:35;;;;;;;6.60;6.00;;;;;;;23.26;100.00;100346.29;105228;1265;60325;-42
2023/07/21 10:47:05;;;;;;;6.80;6.40;;;;;;;23.12;100.00;100359.21;105257;1265;59217;-44
2023/07/21 10:49:33;;;;;;;6.60;6.00;;;;;;;22.96;100.00;100352.81;105238;1263;71051;-42
2023/07/21 10:52:00;;;;;;;6.70;6.00;;;;;;;22.79;100.00;100355.92;105247;1265;65522;-44
2023/07/21 10:54:27;;;;;;;6.40;5.90;;;;;;;22.75;100.00;100344.48;105032;1259;299728;-43
2023/07/21 10:56:57;;;;;;;6.20;5.80;;;;;;;22.84;100.00;100333.98;105318;1262;60515;-42
2023/07/21 10:59:32;;;;;;;5.70;5.20;;;;;;;23.16;100.00;100324.50;105322;1259;60565;-43
2023/07/21 11:01:59;;;;;;;5.60;5.10;;;;;;;23.47;100.00;100305.13;105244;1259;72122;-42
2023/07/21 11:04:31;;;;;;;5.40;4.90;;;;;;;23.64;100.00;100320.42;105319;1264;65542;-43
2023/07/21 11:06:59;;;;;;;5.20;4.80;;;;;;;23.81;100.00;100334.83;105384;1259;72512;-43
2023/07/21 11:09:33;;;;;;;8.20;6.00;;;;;;;23.81;100.00;100354.74;105332;1264;60329;-43
2023/07/21 11:12:01;;;;;;;6.10;5.50;;;;;;;23.63;100.00;100367.38;105486;1263;59622;-43
2023/07/21 11:14:28;;;;;;;6.20;5.70;;;;;;;23.39;100.00;100364.18;105374;1264;73032;-42
2023/07/21 11:17:03;;;;;;;6.30;5.90;;;;;;;23.21;100.00;100378.79;105374;1264;65475;-44
2023/07/21 11:19:33;;;;;;;5.40;5.00;;;;;;;23.43;100.00;100364.41;105356;1260;72628;-43
2023/07/21 11:22:00;;;;;;;5.00;4.70;;;;;;;23.66;100.00;100372.91;105303;1263;60303;-44
2023/07/21 11:24:29;;;;;;;6.10;5.30;;;;;;;23.78;100.00;100366.02;105370;1259;60375;-42
2023/07/21 11:27:07;;;;;;;5.20;4.80;;;;;;;23.91;100.00;100375.45;105332;1260;71580;-43
2023/07/21 11:29:39;;;;;;;5.00;4.60;;;;;;;24.25;100.00;100358.09;105363;1259;64246;-44
2023/07/21 11:32:19;;;;;;;5.10;4.60;;;;;;;24.49;100.00;100366.29;105350;1260;72692;-43
2023/07/21 11:34:57;;;;;;;7.90;4.90;;;;;;;24.72;100.00;100345.98;105300;1264;60190;-44
2023/07/21 11:37:25;;;;;;;5.00;4.40;;;;;;;24.62;100.00;100371.79;105321;1259;60083;-42
2023/07/21 11:39:55;;;;;;;4.80;4.30;;;;;;;24.61;100.00;100392.30;105182;1264;73038;-46
2023/07/21 11:42:23;;;;;;;4.50;3.90;;;;;;;24.76;100.00;100373.89;105301;1263;65350;-43